sensor_id;sensor_type;location;lat;lon;timestamp;temperature;humidity
41481;DHT22;27217;51.220;5.308;2024-03-02T00:00:51;7.30;99.90
41481;DHT22;27217;51.220;5.308;2024-03-02T00:03:17;7.20;99.90
41481;DHT22;27217;51.220;5.308;2024-03-02T00:05:43;6.90;99.90
41481;DHT22;27217;51.220;5.308;2024-03-02T00:08:09;7.10;99.90
41481;DHT22;27217;51.220;5.308;2024-03-02T00:13:02;6.80;99.90
41481;DHT22;27217;51.220;5.308;2024-03-02T00:18:03;6.80;99.90
41481;DHT22;27217;51.220;5.308;2024-03-02T00:20:30;6.80;99.90
41481;DHT22;27217;51.220;5.308;2024-03-02T00:23:03;6.90;99.90
41481;DHT22;27217;51.220;5.308;2024-03-02T00:25:35;6.90;99.90
41481;DHT22;27217;51.220;5.308;2024-03-02T00:28:01;7.00;99.90
41481;DHT22;27217;51.220;5.308;2024-03-02T00:33:08;7.10;99.90
41481;DHT22;27217;51.220;5.308;2024-03-02T00:35:34;7.10;99.90
41481;DHT22;27217;51.220;5.308;2024-03-02T00:38:08;7.10;99.90
41481;DHT22;27217;51.220;5.308;2024-03-02T00:40:34;6.50;99.90
41481;DHT22;27217;51.220;5.308;2024-03-02T00:43:00;7.10;99.90
41481;DHT22;27217;51.220;5.308;2024-03-02T00:45:27;7.20;99.90
41481;DHT22;27217;51.220;5.308;2024-03-02T00:47:53;7.30;99.90
41481;DHT22;27217;51.220;5.308;2024-03-02T00:50:19;7.30;99.90
41481;DHT22;27217;51.220;5.308;2024-03-02T00:52:47;7.50;99.90
41481;DHT22;27217;51.220;5.308;2024-03-02T00:55:16;7.50;99.90
41481;DHT22;27217;51.220;5.308;2024-03-02T00:57:41;7.40;99.90
41481;DHT22;27217;51.220;5.308;2024-03-02T01:00:09;7.40;99.90
41481;DHT22;27217;51.220;5.308;2024-03-02T01:02:37;7.50;99.90
41481;DHT22;27217;51.220;5.308;2024-03-02T01:05:03;7.40;99.90
41481;DHT22;27217;51.220;5.308;2024-03-02T01:07:30;7.30;99.90
41481;DHT22;27217;51.220;5.308;2024-03-02T01:09:56;7.60;99.90
41481;DHT22;27217;51.220;5.308;2024-03-02T01:12:21;7.30;99.90
41481;DHT22;27217;51.220;5.308;2024-03-02T01:14:47;7.40;99.90
41481;DHT22;27217;51.220;5.308;2024-03-02T01:17:13;7.60;99.90
41481;DHT22;27217;51.220;5.308;2024-03-02T01:19:39;7.50;99.90
41481;DHT22;27217;51.220;5.308;2024-03-02T01:22:06;7.40;99.90
41481;DHT22;27217;51.220;5.308;2024-03-02T01:24:32;7.50;99.90
41481;DHT22;27217;51.220;5.308;2024-03-02T01:26:58;7.60;99.90
41481;DHT22;27217;51.220;5.308;2024-03-02T01:29:24;7.50;99.90
41481;DHT22;27217;51.220;5.308;2024-03-02T01:31:49;7.30;99.90
41481;DHT22;27217;51.220;5.308;2024-03-02T01:34:16;7.30;99.90
41481;DHT22;27217;51.220;5.308;2024-03-02T01:36:42;7.40;99.90
41481;DHT22;27217;51.220;5.308;2024-03-02T01:39:08;7.50;99.90
41481;DHT22;27217;51.220;5.308;2024-03-02T01:41:34;7.60;99.90
41481;DHT22;27217;51.220;5.308;2024-03-02T01:44:00;7.50;99.90
41481;DHT22;27217;51.220;5.308;2024-03-02T01:46:26;7.40;99.90
41481;DHT22;27217;51.220;5.308;2024-03-02T01:48:52;7.30;99.90
41481;DHT22;27217;51.220;5.308;2024-03-02T01:51:17;7.10;99.90
41481;DHT22;27217;51.220;5.308;2024-03-02T01:53:46;7.40;99.90
41481;DHT22;27217;51.220;5.308;2024-03-02T01:56:12;7.30;99.90
41481;DHT22;27217;51.220;5.308;2024-03-02T01:58:38;7.70;99.90
41481;DHT22;27217;51.220;5.308;2024-03-02T02:01:04;7.40;99.90
41481;DHT22;27217;51.220;5.308;2024-03-02T02:03:29;7.30;99.90
41481;DHT22;27217;51.220;5.308;2024-03-02T02:05:55;7.20;99.90
41481;DHT22;27217;51.220;5.308;2024-03-02T02:08:21;7.00;99.90
41481;DHT22;27217;51.220;5.308;2024-03-02T02:10:46;6.90;99.90
41481;DHT22;27217;51.220;5.308;2024-03-02T02:13:12;7.00;99.90
41481;DHT22;27217;51.220;5.308;2024-03-02T02:15:38;7.10;99.90
41481;DHT22;27217;51.220;5.308;2024-03-02T02:18:04;7.00;99.90
41481;DHT22;27217;51.220;5.308;2024-03-02T02:20:29;7.00;99.90
41481;DHT22;27217;51.220;5.308;2024-03-02T02:25:21;6.90;99.90
41481;DHT22;27217;51.220;5.308;2024-03-02T02:27:46;6.90;99.90
41481;DHT22;27217;51.220;5.308;2024-03-02T02:30:12;6.90;99.90
41481;DHT22;27217;51.220;5.308;2024-03-02T02:32:38;6.90;99.90
41481;DHT22;27217;51.220;5.308;2024-03-02T02:35:03;7.30;99.90
41481;DHT22;27217;51.220;5.308;2024-03-02T02:37:30;7.00;99.90
41481;DHT22;27217;51.220;5.308;2024-03-02T02:39:55;6.80;99.90
41481;DHT22;27217;51.220;5.308;2024-03-02T02:42:21;6.70;99.90
41481;DHT22;27217;51.220;5.308;2024-03-02T02:44:47;6.80;99.90
41481;DHT22;27217;51.220;5.308;2024-03-02T02:47:12;6.90;99.90
41481;DHT22;27217;51.220;5.308;2024-03-02T02:49:38;6.60;99.90
41481;DHT22;27217;51.220;5.308;2024-03-02T02:52:04;6.80;99.90
41481;DHT22;27217;51.220;5.308;2024-03-02T02:54:29;7.50;99.90
41481;DHT22;27217;51.220;5.308;2024-03-02T02:56:55;7.00;99.90
41481;DHT22;27217;51.220;5.308;2024-03-02T02:59:20;6.80;99.90
41481;DHT22;27217;51.220;5.308;2024-03-02T03:01:46;7.00;99.90
41481;DHT22;27217;51.220;5.308;2024-03-02T03:04:12;7.10;99.90
41481;DHT22;27217;51.220;5.308;2024-03-02T03:06:38;7.20;99.90
41481;DHT22;27217;51.220;5.308;2024-03-02T03:09:03;7.30;99.90
41481;DHT22;27217;51.220;5.308;2024-03-02T03:11:29;7.20;99.90
41481;DHT22;27217;51.220;5.308;2024-03-02T03:13:55;7.20;99.90
41481;DHT22;27217;51.220;5.308;2024-03-02T03:16:21;7.10;99.90
41481;DHT22;27217;51.220;5.308;2024-03-02T03:18:46;7.20;99.90
41481;DHT22;27217;51.220;5.308;2024-03-02T03:21:12;7.20;99.90
41481;DHT22;27217;51.220;5.308;2024-03-02T03:23:38;7.10;99.90
41481;DHT22;27217;51.220;5.308;2024-03-02T03:26:03;7.20;99.90
41481;DHT22;27217;51.220;5.308;2024-03-02T03:28:32;7.40;99.90
41481;DHT22;27217;51.220;5.308;2024-03-02T03:30:58;7.90;99.90
41481;DHT22;27217;51.220;5.308;2024-03-02T03:33:23;7.50;99.90
41481;DHT22;27217;51.220;5.308;2024-03-02T03:35:49;7.40;99.90
41481;DHT22;27217;51.220;5.308;2024-03-02T03:38:15;7.30;99.90
41481;DHT22;27217;51.220;5.308;2024-03-02T03:40:41;7.20;99.90
41481;DHT22;27217;51.220;5.308;2024-03-02T03:43:07;7.40;99.90
41481;DHT22;27217;51.220;5.308;2024-03-02T03:45:33;7.10;99.90
41481;DHT22;27217;51.220;5.308;2024-03-02T03:47:59;5.90;99.90
41481;DHT22;27217;51.220;5.308;2024-03-02T03:50:25;7.10;99.90
41481;DHT22;27217;51.220;5.308;2024-03-02T03:52:51;7.20;99.90
41481;DHT22;27217;51.220;5.308;2024-03-02T03:55:16;7.10;99.90
41481;DHT22;27217;51.220;5.308;2024-03-02T03:57:45;8.00;99.90
41481;DHT22;27217;51.220;5.308;2024-03-02T04:00:10;7.00;99.90
41481;DHT22;27217;51.220;5.308;2024-03-02T04:02:37;7.10;99.90
41481;DHT22;27217;51.220;5.308;2024-03-02T04:05:03;7.30;99.90
41481;DHT22;27217;51.220;5.308;2024-03-02T04:07:34;7.20;99.90
41481;DHT22;27217;51.220;5.308;2024-03-02T04:10:06;7.10;99.90
41481;DHT22;27217;51.220;5.308;2024-03-02T04:12:33;7.30;99.90
41481;DHT22;27217;51.220;5.308;2024-03-02T04:14:59;7.30;99.90
41481;DHT22;27217;51.220;5.308;2024-03-02T04:17:25;7.30;99.90
41481;DHT22;27217;51.220;5.308;2024-03-02T04:19:51;7.30;99.90
41481;DHT22;27217;51.220;5.308;2024-03-02T04:22:17;7.30;99.90
41481;DHT22;27217;51.220;5.308;2024-03-02T04:24:43;7.30;99.90
41481;DHT22;27217;51.220;5.308;2024-03-02T04:27:09;7.40;99.90
41481;DHT22;27217;51.220;5.308;2024-03-02T04:29:34;7.40;99.90
41481;DHT22;27217;51.220;5.308;2024-03-02T04:32:00;7.60;99.90
41481;DHT22;27217;51.220;5.308;2024-03-02T04:34:26;7.50;99.90
41481;DHT22;27217;51.220;5.308;2024-03-02T04:36:51;7.40;99.90
41481;DHT22;27217;51.220;5.308;2024-03-02T04:39:17;7.20;99.90
41481;DHT22;27217;51.220;5.308;2024-03-02T04:41:43;7.20;99.90
41481;DHT22;27217;51.220;5.308;2024-03-02T04:44:09;7.20;99.90
41481;DHT22;27217;51.220;5.308;2024-03-02T04:46:35;7.10;99.90
41481;DHT22;27217;51.220;5.308;2024-03-02T04:49:01;7.10;99.90
41481;DHT22;27217;51.220;5.308;2024-03-02T04:51:27;7.00;99.90
41481;DHT22;27217;51.220;5.308;2024-03-02T04:53:53;6.00;99.90
41481;DHT22;27217;51.220;5.308;2024-03-02T04:56:21;7.10;99.90
41481;DHT22;27217;51.220;5.308;2024-03-02T04:59:08;7.00;99.90
41481;DHT22;27217;51.220;5.308;2024-03-02T05:01:34;7.10;99.90
41481;DHT22;27217;51.220;5.308;2024-03-02T05:04:00;7.10;99.90
41481;DHT22;27217;51.220;5.308;2024-03-02T05:06:25;7.30;99.90
41481;DHT22;27217;51.220;5.308;2024-03-02T05:08:51;7.40;99.90
41481;DHT22;27217;51.220;5.308;2024-03-02T05:11:17;7.30;99.90
41481;DHT22;27217;51.220;5.308;2024-03-02T05:14:01;7.50;99.90
41481;DHT22;27217;51.220;5.308;2024-03-02T05:16:27;7.50;99.90
41481;DHT22;27217;51.220;5.308;2024-03-02T05:18:53;7.50;99.90
41481;DHT22;27217;51.220;5.308;2024-03-02T05:21:18;7.30;99.90
41481;DHT22;27217;51.220;5.308;2024-03-02T05:23:44;7.50;99.90
41481;DHT22;27217;51.220;5.308;2024-03-02T05:26:10;7.00;99.90
41481;DHT22;27217;51.220;5.308;2024-03-02T05:28:38;6.40;99.90
41481;DHT22;27217;51.220;5.308;2024-03-02T05:31:04;6.50;99.90
41481;DHT22;27217;51.220;5.308;2024-03-02T05:33:30;6.50;99.90
41481;DHT22;27217;51.220;5.308;2024-03-02T05:35:58;6.60;99.90
41481;DHT22;27217;51.220;5.308;2024-03-02T05:38:24;6.40;99.90
41481;DHT22;27217;51.220;5.308;2024-03-02T05:40:50;6.20;99.90
41481;DHT22;27217;51.220;5.308;2024-03-02T05:43:15;6.40;99.90
41481;DHT22;27217;51.220;5.308;2024-03-02T05:45:41;7.60;99.90
41481;DHT22;27217;51.220;5.308;2024-03-02T05:48:07;6.30;99.90
41481;DHT22;27217;51.220;5.308;2024-03-02T05:50:33;6.30;99.90
41481;DHT22;27217;51.220;5.308;2024-03-02T05:52:59;6.30;99.90
41481;DHT22;27217;51.220;5.308;2024-03-02T05:55:24;6.00;99.90
41481;DHT22;27217;51.220;5.308;2024-03-02T05:57:50;6.40;99.90
41481;DHT22;27217;51.220;5.308;2024-03-02T06:00:31;6.40;99.90
41481;DHT22;27217;51.220;5.308;2024-03-02T06:02:57;6.20;99.90
41481;DHT22;27217;51.220;5.308;2024-03-02T06:05:23;6.30;99.90
41481;DHT22;27217;51.220;5.308;2024-03-02T06:07:50;6.30;99.90
41481;DHT22;27217;51.220;5.308;2024-03-02T06:10:16;6.90;99.90
41481;DHT22;27217;51.220;5.308;2024-03-02T06:12:42;6.40;99.90
41481;DHT22;27217;51.220;5.308;2024-03-02T06:15:08;6.40;99.90
41481;DHT22;27217;51.220;5.308;2024-03-02T06:17:34;6.40;99.90
41481;DHT22;27217;51.220;5.308;2024-03-02T06:20:00;6.30;99.90
41481;DHT22;27217;51.220;5.308;2024-03-02T06:22:26;6.20;99.90
41481;DHT22;27217;51.220;5.308;2024-03-02T06:24:52;6.20;99.90
41481;DHT22;27217;51.220;5.308;2024-03-02T06:27:18;6.30;99.90
41481;DHT22;27217;51.220;5.308;2024-03-02T06:29:43;5.50;99.90
41481;DHT22;27217;51.220;5.308;2024-03-02T06:32:09;6.20;99.90
41481;DHT22;27217;51.220;5.308;2024-03-02T06:34:35;6.20;99.90
41481;DHT22;27217;51.220;5.308;2024-03-02T06:37:00;6.20;99.90
41481;DHT22;27217;51.220;5.308;2024-03-02T06:39:26;7.20;99.90
41481;DHT22;27217;51.220;5.308;2024-03-02T06:41:52;6.30;99.90
41481;DHT22;27217;51.220;5.308;2024-03-02T06:44:18;6.30;99.90
41481;DHT22;27217;51.220;5.308;2024-03-02T06:46:44;6.20;99.90
41481;DHT22;27217;51.220;5.308;2024-03-02T06:49:09;6.20;99.90
41481;DHT22;27217;51.220;5.308;2024-03-02T06:51:38;6.10;99.90
41481;DHT22;27217;51.220;5.308;2024-03-02T06:54:03;6.20;99.90
41481;DHT22;27217;51.220;5.308;2024-03-02T06:56:29;6.30;99.90
41481;DHT22;27217;51.220;5.308;2024-03-02T06:58:56;6.20;99.90
41481;DHT22;27217;51.220;5.308;2024-03-02T07:01:23;6.10;99.90
41481;DHT22;27217;51.220;5.308;2024-03-02T07:03:51;6.30;99.90
41481;DHT22;27217;51.220;5.308;2024-03-02T07:06:17;6.10;99.90
41481;DHT22;27217;51.220;5.308;2024-03-02T07:08:43;6.10;99.90
41481;DHT22;27217;51.220;5.308;2024-03-02T07:11:09;6.20;99.90
41481;DHT22;27217;51.220;5.308;2024-03-02T07:13:34;6.30;99.90
41481;DHT22;27217;51.220;5.308;2024-03-02T07:16:00;6.50;99.90
41481;DHT22;27217;51.220;5.308;2024-03-02T07:18:29;6.50;99.90
41481;DHT22;27217;51.220;5.308;2024-03-02T07:20:56;6.30;99.90
41481;DHT22;27217;51.220;5.308;2024-03-02T07:23:24;7.10;99.90
41481;DHT22;27217;51.220;5.308;2024-03-02T07:25:52;5.90;99.90
41481;DHT22;27217;51.220;5.308;2024-03-02T07:28:22;6.30;99.90
41481;DHT22;27217;51.220;5.308;2024-03-02T07:30:57;7.50;99.90
41481;DHT22;27217;51.220;5.308;2024-03-02T07:33:24;6.30;99.90
41481;DHT22;27217;51.220;5.308;2024-03-02T07:35:49;6.60;99.90
41481;DHT22;27217;51.220;5.308;2024-03-02T07:38:15;6.70;99.90
41481;DHT22;27217;51.220;5.308;2024-03-02T07:40:42;6.60;99.90
41481;DHT22;27217;51.220;5.308;2024-03-02T07:43:08;6.50;99.90
41481;DHT22;27217;51.220;5.308;2024-03-02T07:45:34;6.50;99.90
41481;DHT22;27217;51.220;5.308;2024-03-02T07:48:01;7.60;99.90
41481;DHT22;27217;51.220;5.308;2024-03-02T07:50:27;5.90;99.90
41481;DHT22;27217;51.220;5.308;2024-03-02T07:52:52;6.70;99.90
41481;DHT22;27217;51.220;5.308;2024-03-02T07:55:18;7.00;99.90
41481;DHT22;27217;51.220;5.308;2024-03-02T07:57:44;7.00;99.90
41481;DHT22;27217;51.220;5.308;2024-03-02T08:00:09;5.90;99.90
41481;DHT22;27217;51.220;5.308;2024-03-02T08:02:35;6.90;99.90
41481;DHT22;27217;51.220;5.308;2024-03-02T08:05:01;7.00;99.90
41481;DHT22;27217;51.220;5.308;2024-03-02T08:07:27;7.00;99.90
41481;DHT22;27217;51.220;5.308;2024-03-02T08:09:53;7.10;99.90
41481;DHT22;27217;51.220;5.308;2024-03-02T08:12:19;7.10;99.90
41481;DHT22;27217;51.220;5.308;2024-03-02T08:14:47;7.30;99.90
41481;DHT22;27217;51.220;5.308;2024-03-02T08:17:12;7.40;99.90
41481;DHT22;27217;51.220;5.308;2024-03-02T08:19:38;7.40;99.90
41481;DHT22;27217;51.220;5.308;2024-03-02T08:22:04;7.40;99.90
41481;DHT22;27217;51.220;5.308;2024-03-02T08:24:30;7.70;99.90
41481;DHT22;27217;51.220;5.308;2024-03-02T08:26:56;8.00;99.90
41481;DHT22;27217;51.220;5.308;2024-03-02T08:29:22;8.00;99.90
41481;DHT22;27217;51.220;5.308;2024-03-02T08:31:47;7.50;99.90
41481;DHT22;27217;51.220;5.308;2024-03-02T08:34:14;7.90;99.90
41481;DHT22;27217;51.220;5.308;2024-03-02T08:36:40;8.00;99.90
41481;DHT22;27217;51.220;5.308;2024-03-02T08:39:06;8.00;99.90
41481;DHT22;27217;51.220;5.308;2024-03-02T08:41:38;8.10;99.90
41481;DHT22;27217;51.220;5.308;2024-03-02T08:44:05;8.30;99.90
41481;DHT22;27217;51.220;5.308;2024-03-02T08:46:31;8.40;99.90
41481;DHT22;27217;51.220;5.308;2024-03-02T08:48:57;8.40;99.90
41481;DHT22;27217;51.220;5.308;2024-03-02T08:51:23;8.50;99.90
41481;DHT22;27217;51.220;5.308;2024-03-02T08:53:49;8.60;99.90
41481;DHT22;27217;51.220;5.308;2024-03-02T08:56:14;8.60;99.90
41481;DHT22;27217;51.220;5.308;2024-03-02T08:58:41;8.50;99.90
41481;DHT22;27217;51.220;5.308;2024-03-02T09:01:07;8.10;99.90
41481;DHT22;27217;51.220;5.308;2024-03-02T09:03:33;8.00;99.90
41481;DHT22;27217;51.220;5.308;2024-03-02T09:06:00;8.80;99.90
41481;DHT22;27217;51.220;5.308;2024-03-02T09:08:26;8.60;99.90
41481;DHT22;27217;51.220;5.308;2024-03-02T09:10:51;8.90;99.90
41481;DHT22;27217;51.220;5.308;2024-03-02T09:13:18;8.90;99.90
41481;DHT22;27217;51.220;5.308;2024-03-02T09:15:44;9.00;99.90
41481;DHT22;27217;51.220;5.308;2024-03-02T09:18:09;9.00;99.90
41481;DHT22;27217;51.220;5.308;2024-03-02T09:20:36;9.10;99.90
41481;DHT22;27217;51.220;5.308;2024-03-02T09:23:02;8.30;99.90
41481;DHT22;27217;51.220;5.308;2024-03-02T09:25:28;9.30;99.90
41481;DHT22;27217;51.220;5.308;2024-03-02T09:27:53;9.40;99.90
41481;DHT22;27217;51.220;5.308;2024-03-02T09:30:19;9.30;99.90
41481;DHT22;27217;51.220;5.308;2024-03-02T09:32:45;9.30;99.90
41481;DHT22;27217;51.220;5.308;2024-03-02T09:35:11;9.40;99.90
41481;DHT22;27217;51.220;5.308;2024-03-02T09:37:37;9.50;99.90
41481;DHT22;27217;51.220;5.308;2024-03-02T09:40:03;9.50;99.90
41481;DHT22;27217;51.220;5.308;2024-03-02T09:42:29;9.50;99.90
41481;DHT22;27217;51.220;5.308;2024-03-02T09:44:55;9.50;99.90
41481;DHT22;27217;51.220;5.308;2024-03-02T09:47:20;9.60;99.90
41481;DHT22;27217;51.220;5.308;2024-03-02T09:49:46;9.50;99.90
41481;DHT22;27217;51.220;5.308;2024-03-02T09:52:12;9.60;99.90
41481;DHT22;27217;51.220;5.308;2024-03-02T09:54:39;9.00;99.90
41481;DHT22;27217;51.220;5.308;2024-03-02T09:57:05;9.70;99.90
41481;DHT22;27217;51.220;5.308;2024-03-02T09:59:31;9.80;99.90
41481;DHT22;27217;51.220;5.308;2024-03-02T10:02:03;9.90;99.90
41481;DHT22;27217;51.220;5.308;2024-03-02T10:04:29;8.90;99.90
41481;DHT22;27217;51.220;5.308;2024-03-02T10:07:11;9.90;99.90
41481;DHT22;27217;51.220;5.308;2024-03-02T10:09:37;9.60;99.90
41481;DHT22;27217;51.220;5.308;2024-03-02T10:12:04;10.00;99.90
41481;DHT22;27217;51.220;5.308;2024-03-02T10:14:30;10.40;99.90
41481;DHT22;27217;51.220;5.308;2024-03-02T10:16:56;10.10;99.90
41481;DHT22;27217;51.220;5.308;2024-03-02T10:19:26;10.90;99.90
41481;DHT22;27217;51.220;5.308;2024-03-02T10:21:55;11.00;99.90
41481;DHT22;27217;51.220;5.308;2024-03-02T10:24:23;11.10;99.90
41481;DHT22;27217;51.220;5.308;2024-03-02T10:26:49;11.00;99.90
41481;DHT22;27217;51.220;5.308;2024-03-02T10:29:15;11.30;99.90
41481;DHT22;27217;51.220;5.308;2024-03-02T10:31:42;11.50;99.90
41481;DHT22;27217;51.220;5.308;2024-03-02T10:34:11;11.50;98.70
41481;DHT22;27217;51.220;5.308;2024-03-02T10:36:37;11.70;99.80
41481;DHT22;27217;51.220;5.308;2024-03-02T10:39:06;11.80;99.50
41481;DHT22;27217;51.220;5.308;2024-03-02T10:41:32;11.40;99.90
41481;DHT22;27217;51.220;5.308;2024-03-02T10:43:59;11.70;99.10
41481;DHT22;27217;51.220;5.308;2024-03-02T10:46:27;11.70;99.60
41481;DHT22;27217;51.220;5.308;2024-03-02T10:48:54;11.90;97.90
41481;DHT22;27217;51.220;5.308;2024-03-02T10:51:20;12.10;98.60
41481;DHT22;27217;51.220;5.308;2024-03-02T10:53:46;12.40;95.90
41481;DHT22;27217;51.220;5.308;2024-03-02T10:56:12;12.30;96.80
41481;DHT22;27217;51.220;5.308;2024-03-02T10:58:41;12.30;95.80
41481;DHT22;27217;51.220;5.308;2024-03-02T11:01:07;12.30;94.00
41481;DHT22;27217;51.220;5.308;2024-03-02T11:03:34;12.80;93.00
41481;DHT22;27217;51.220;5.308;2024-03-02T11:06:01;13.40;87.60
41481;DHT22;27217;51.220;5.308;2024-03-02T11:08:28;13.90;82.40
41481;DHT22;27217;51.220;5.308;2024-03-02T11:10:58;14.00;79.70
41481;DHT22;27217;51.220;5.308;2024-03-02T11:13:32;14.10;80.40
41481;DHT22;27217;51.220;5.308;2024-03-02T11:16:44;15.10;67.10
41481;DHT22;27217;51.220;5.308;2024-03-02T11:18:44;15.70;63.20
41481;DHT22;27217;51.220;5.308;2024-03-02T11:21:10;16.00;59.40
41481;DHT22;27217;51.220;5.308;2024-03-02T11:23:37;16.80;56.00
41481;DHT22;27217;51.220;5.308;2024-03-02T11:26:21;16.60;54.40
41481;DHT22;27217;51.220;5.308;2024-03-02T11:28:48;16.50;56.30
41481;DHT22;27217;51.220;5.308;2024-03-02T11:31:14;16.40;54.50
41481;DHT22;27217;51.220;5.308;2024-03-02T11:33:39;16.30;53.10
41481;DHT22;27217;51.220;5.308;2024-03-02T11:36:08;15.30;57.90
41481;DHT22;27217;51.220;5.308;2024-03-02T11:38:34;15.70;55.80
41481;DHT22;27217;51.220;5.308;2024-03-02T11:41:01;16.00;55.40
41481;DHT22;27217;51.220;5.308;2024-03-02T11:43:28;15.90;55.10
41481;DHT22;27217;51.220;5.308;2024-03-02T11:45:58;15.90;56.00
41481;DHT22;27217;51.220;5.308;2024-03-02T11:48:25;16.30;53.60
41481;DHT22;27217;51.220;5.308;2024-03-02T11:50:51;15.90;52.40
41481;DHT22;27217;51.220;5.308;2024-03-02T11:53:17;16.60;52.00
41481;DHT22;27217;51.220;5.308;2024-03-02T11:55:43;17.10;50.00
41481;DHT22;27217;51.220;5.308;2024-03-02T11:58:12;17.90;48.80
41481;DHT22;27217;51.220;5.308;2024-03-02T12:00:37;18.70;45.70
41481;DHT22;27217;51.220;5.308;2024-03-02T12:03:07;19.10;43.40
41481;DHT22;27217;51.220;5.308;2024-03-02T12:05:33;18.80;44.10
41481;DHT22;27217;51.220;5.308;2024-03-02T12:08:02;18.10;45.90
41481;DHT22;27217;51.220;5.308;2024-03-02T12:10:28;18.00;46.40
41481;DHT22;27217;51.220;5.308;2024-03-02T12:13:04;18.10;47.00
41481;DHT22;27217;51.220;5.308;2024-03-02T12:15:32;18.00;44.60
41481;DHT22;27217;51.220;5.308;2024-03-02T12:17:59;18.20;44.90
41481;DHT22;27217;51.220;5.308;2024-03-02T12:20:26;19.00;43.60
41481;DHT22;27217;51.220;5.308;2024-03-02T12:22:52;19.00;42.60
41481;DHT22;27217;51.220;5.308;2024-03-02T12:25:19;19.00;42.70
41481;DHT22;27217;51.220;5.308;2024-03-02T12:27:45;18.90;42.70
41481;DHT22;27217;51.220;5.308;2024-03-02T12:30:11;19.70;41.50
41481;DHT22;27217;51.220;5.308;2024-03-02T12:32:39;20.80;39.30
41481;DHT22;27217;51.220;5.308;2024-03-02T12:35:05;20.50;40.40
41481;DHT22;27217;51.220;5.308;2024-03-02T12:37:31;20.50;38.80
41481;DHT22;27217;51.220;5.308;2024-03-02T12:39:56;20.50;38.90
41481;DHT22;27217;51.220;5.308;2024-03-02T12:42:23;20.50;38.90
41481;DHT22;27217;51.220;5.308;2024-03-02T12:44:49;20.50;37.40
41481;DHT22;27217;51.220;5.308;2024-03-02T12:47:14;19.40;39.10
41481;DHT22;27217;51.220;5.308;2024-03-02T12:49:40;18.90;40.50
41481;DHT22;27217;51.220;5.308;2024-03-02T12:52:06;18.00;42.70
41481;DHT22;27217;51.220;5.308;2024-03-02T12:54:32;17.50;44.70
41481;DHT22;27217;51.220;5.308;2024-03-02T12:56:58;18.50;43.00
41481;DHT22;27217;51.220;5.308;2024-03-02T12:59:24;18.40;42.00
41481;DHT22;27217;51.220;5.308;2024-03-02T13:01:52;18.20;43.50
41481;DHT22;27217;51.220;5.308;2024-03-02T13:04:24;18.90;42.00
41481;DHT22;27217;51.220;5.308;2024-03-02T13:06:51;19.20;40.80
41481;DHT22;27217;51.220;5.308;2024-03-02T13:09:17;19.20;40.60
41481;DHT22;27217;51.220;5.308;2024-03-02T13:11:43;19.40;39.70
41481;DHT22;27217;51.220;5.308;2024-03-02T13:14:10;18.30;40.40
41481;DHT22;27217;51.220;5.308;2024-03-02T13:16:39;19.60;40.00
41481;DHT22;27217;51.220;5.308;2024-03-02T13:19:08;20.60;38.80
41481;DHT22;27217;51.220;5.308;2024-03-02T13:21:35;20.60;37.70
41481;DHT22;27217;51.220;5.308;2024-03-02T13:24:01;21.30;37.30
41481;DHT22;27217;51.220;5.308;2024-03-02T13:26:26;22.60;35.70
41481;DHT22;27217;51.220;5.308;2024-03-02T13:28:53;24.50;32.30
41481;DHT22;27217;51.220;5.308;2024-03-02T13:31:21;24.60;31.00
41481;DHT22;27217;51.220;5.308;2024-03-02T13:33:46;23.90;30.10
41481;DHT22;27217;51.220;5.308;2024-03-02T13:36:12;23.20;32.00
41481;DHT22;27217;51.220;5.308;2024-03-02T13:38:38;23.90;31.00
41481;DHT22;27217;51.220;5.308;2024-03-02T13:41:03;23.10;32.30
41481;DHT22;27217;51.220;5.308;2024-03-02T13:43:29;22.70;33.00
41481;DHT22;27217;51.220;5.308;2024-03-02T13:45:59;23.00;34.00
41481;DHT22;27217;51.220;5.308;2024-03-02T13:48:25;22.40;33.50
41481;DHT22;27217;51.220;5.308;2024-03-02T13:50:51;21.10;35.60
41481;DHT22;27217;51.220;5.308;2024-03-02T13:53:18;19.30;39.70
41481;DHT22;27217;51.220;5.308;2024-03-02T13:55:44;19.60;41.30
41481;DHT22;27217;51.220;5.308;2024-03-02T13:58:09;21.20;36.70
41481;DHT22;27217;51.220;5.308;2024-03-02T14:00:36;21.80;34.00
41481;DHT22;27217;51.220;5.308;2024-03-02T14:03:02;23.00;33.20
41481;DHT22;27217;51.220;5.308;2024-03-02T14:05:28;21.40;35.50
41481;DHT22;27217;51.220;5.308;2024-03-02T14:07:54;20.80;37.60
41481;DHT22;27217;51.220;5.308;2024-03-02T14:10:20;21.10;36.60
41481;DHT22;27217;51.220;5.308;2024-03-02T14:12:48;21.30;36.90
41481;DHT22;27217;51.220;5.308;2024-03-02T14:15:13;22.00;36.40
41481;DHT22;27217;51.220;5.308;2024-03-02T14:17:41;21.80;35.30
41481;DHT22;27217;51.220;5.308;2024-03-02T14:20:08;22.80;34.60
41481;DHT22;27217;51.220;5.308;2024-03-02T14:22:36;23.90;32.60
41481;DHT22;27217;51.220;5.308;2024-03-02T14:25:03;22.20;34.70
41481;DHT22;27217;51.220;5.308;2024-03-02T14:27:28;21.00;37.40
41481;DHT22;27217;51.220;5.308;2024-03-02T14:29:54;21.00;37.00
41481;DHT22;27217;51.220;5.308;2024-03-02T14:32:19;20.90;37.00
41481;DHT22;27217;51.220;5.308;2024-03-02T14:34:45;19.80;38.90
41481;DHT22;27217;51.220;5.308;2024-03-02T14:37:12;18.70;41.50
41481;DHT22;27217;51.220;5.308;2024-03-02T14:39:38;18.40;43.10
41481;DHT22;27217;51.220;5.308;2024-03-02T14:42:04;18.00;43.80
41481;DHT22;27217;51.220;5.308;2024-03-02T14:44:30;17.50;45.30
41481;DHT22;27217;51.220;5.308;2024-03-02T14:46:56;17.00;47.00
41481;DHT22;27217;51.220;5.308;2024-03-02T14:49:23;16.40;49.30
41481;DHT22;27217;51.220;5.308;2024-03-02T14:51:49;16.10;51.40
41481;DHT22;27217;51.220;5.308;2024-03-02T14:54:15;15.60;54.80
41481;DHT22;27217;51.220;5.308;2024-03-02T14:56:40;15.50;56.50
41481;DHT22;27217;51.220;5.308;2024-03-02T14:59:06;15.40;58.10
41481;DHT22;27217;51.220;5.308;2024-03-02T15:01:31;15.30;60.90
41481;DHT22;27217;51.220;5.308;2024-03-02T15:03:57;15.60;61.60
41481;DHT22;27217;51.220;5.308;2024-03-02T15:06:23;16.20;57.40
41481;DHT22;27217;51.220;5.308;2024-03-02T15:08:48;16.50;56.00
41481;DHT22;27217;51.220;5.308;2024-03-02T15:11:14;16.30;55.80
41481;DHT22;27217;51.220;5.308;2024-03-02T15:13:40;16.30;56.70
41481;DHT22;27217;51.220;5.308;2024-03-02T15:16:06;15.90;59.00
41481;DHT22;27217;51.220;5.308;2024-03-02T15:18:31;15.70;59.40
41481;DHT22;27217;51.220;5.308;2024-03-02T15:20:57;15.40;63.40
41481;DHT22;27217;51.220;5.308;2024-03-02T15:23:22;15.40;64.80
41481;DHT22;27217;51.220;5.308;2024-03-02T15:25:49;15.70;62.20
41481;DHT22;27217;51.220;5.308;2024-03-02T15:28:15;15.70;62.00
41481;DHT22;27217;51.220;5.308;2024-03-02T15:30:40;15.40;62.80
41481;DHT22;27217;51.220;5.308;2024-03-02T15:33:06;15.30;63.80
41481;DHT22;27217;51.220;5.308;2024-03-02T15:35:41;14.90;65.90
41481;DHT22;27217;51.220;5.308;2024-03-02T15:38:07;15.40;64.10
41481;DHT22;27217;51.220;5.308;2024-03-02T15:40:37;15.60;61.60
41481;DHT22;27217;51.220;5.308;2024-03-02T15:43:02;15.30;62.20
41481;DHT22;27217;51.220;5.308;2024-03-02T15:45:28;15.10;64.50